createdAt,value
2016-09-21T00:00:59.854Z,56.3
2016-09-21T00:01:59.828Z,56.49
2016-09-21T00:02:59.807Z,56.3
2016-09-21T00:03:59.791Z,56.1
2016-09-21T00:04:59.765Z,56.1
2016-09-21T00:05:59.742Z,56.1
2016-09-21T00:06:59.716Z,56.3
2016-09-21T00:07:59.695Z,56.3
2016-09-21T00:08:59.671Z,56.39
2016-09-21T00:09:59.647Z,56.3
2016-09-21T00:10:59.624Z,56.2
2016-09-21T00:11:59.603Z,56.39
2016-09-21T00:12:59.580Z,56.39
2016-09-21T00:13:59.559Z,56.39
2016-09-21T00:14:59.532Z,56.2
2016-09-21T00:15:59.512Z,56.3
2016-09-21T00:16:59.494Z,56.3
2016-09-21T00:17:59.465Z,56.77
2016-09-21T00:18:59.450Z,56.68
2016-09-21T00:19:59.422Z,56.87
2016-09-21T00:20:59.399Z,56.77
2016-09-21T00:21:59.375Z,56.77
2016-09-21T00:22:59.353Z,56.49
2016-09-21T00:23:59.325Z,56.49
2016-09-21T00:24:59.308Z,56.77
2016-09-21T00:25:59.283Z,56.97
2016-09-21T00:26:59.263Z,56.68
2016-09-21T00:27:59.233Z,56.59
2016-09-21T00:28:59.228Z,56.87
2016-09-21T00:29:59.190Z,56.68
2016-09-21T00:30:59.166Z,56.49
2016-09-21T00:31:59.144Z,56.77
2016-09-21T00:32:59.123Z,56.77
2016-09-21T00:33:59.099Z,56.59
2016-09-21T00:34:59.076Z,56.3
2016-09-21T00:35:59.051Z,56.27
2016-09-21T00:36:59.031Z,56.39
2016-09-21T00:37:59.007Z,56.2
2016-09-21T00:38:58.989Z,56.2
2016-09-21T00:39:58.962Z,56.2
2016-09-21T00:40:58.936Z,56.59
2016-09-21T00:41:58.918Z,56.3
2016-09-21T00:42:58.892Z,56.37
2016-09-21T00:43:58.872Z,56.08
2016-09-21T00:44:58.846Z,56.3
2016-09-21T00:45:58.823Z,56.56
2016-09-21T00:46:59.124Z,56.59
2016-09-21T00:47:58.780Z,56.68
2016-09-21T00:48:58.751Z,56.59
2016-09-21T00:49:58.730Z,56.39
2016-09-21T00:50:58.713Z,56.49
2016-09-21T00:51:58.687Z,56.39
2016-09-21T00:52:58.671Z,56.39
2016-09-21T00:53:58.639Z,56.68
2016-09-21T00:54:58.615Z,56.49
2016-09-21T00:55:58.593Z,56.68
2016-09-21T00:56:58.569Z,56.59
2016-09-21T00:57:58.549Z,56.56
2016-09-21T00:58:58.525Z,56.65
2016-09-21T00:59:58.500Z,56.39
2016-09-21T01:00:58.475Z,56.27
2016-09-21T01:01:58.452Z,56.1
2016-09-21T01:02:58.433Z,56.37
2016-09-21T01:03:58.410Z,56.3
2016-09-21T01:04:58.388Z,56.27
2016-09-21T01:05:58.364Z,56.65
2016-09-21T01:06:58.339Z,56.49
2016-09-21T01:07:58.316Z,56.37
2016-09-21T01:08:58.293Z,56.08
2016-09-21T01:09:58.271Z,55.98
2016-09-21T01:10:58.250Z,56.08
2016-09-21T01:11:58.222Z,56.08
2016-09-21T01:12:58.201Z,56.08
2016-09-21T01:13:58.178Z,56.1
2016-09-21T01:14:58.162Z,56.01
2016-09-21T01:15:58.132Z,56.17
2016-09-21T01:16:58.110Z,56.08
2016-09-21T01:17:58.086Z,56.08
2016-09-21T01:18:58.063Z,56.17
2016-09-21T01:19:58.041Z,56.2
2016-09-21T01:20:58.017Z,56.08
2016-09-21T01:21:57.992Z,56.17
2016-09-21T01:22:57.971Z,56.08
2016-09-21T01:23:57.948Z,56.17
2016-09-21T01:24:57.926Z,56.08
2016-09-21T01:25:57.901Z,55.98
2016-09-21T01:26:57.877Z,56.27
2016-09-21T01:27:57.855Z,56.17
2016-09-21T01:28:57.834Z,56.08
2016-09-21T01:29:57.808Z,55.98
2016-09-21T01:30:57.888Z,56.08
2016-09-21T01:31:57.766Z,56.08
2016-09-21T01:32:57.744Z,56.08
2016-09-21T01:33:57.716Z,56.08
2016-09-21T01:34:57.692Z,56.08
2016-09-21T01:35:57.669Z,56.37
2016-09-21T01:36:57.647Z,56.75
2016-09-21T01:37:57.627Z,56.37
2016-09-21T01:38:57.617Z,56.46
2016-09-21T01:39:57.576Z,56.46
2016-09-21T01:40:57.553Z,56.27
2016-09-21T01:41:57.532Z,56.27
2016-09-21T01:42:57.506Z,56.37
2016-09-21T01:43:57.486Z,56.56
2016-09-21T01:44:57.464Z,56.46
2016-09-21T01:45:57.444Z,56.37
2016-09-21T01:46:57.412Z,56.37
2016-09-21T01:47:57.394Z,56.17
2016-09-21T01:48:57.370Z,56.27
2016-09-21T01:49:57.345Z,56.65
2016-09-21T01:50:57.324Z,56.37
2016-09-21T01:51:57.299Z,56.46
2016-09-21T01:52:57.275Z,56.27
2016-09-21T01:53:57.258Z,56.17
2016-09-21T01:54:57.225Z,56.27
2016-09-21T01:55:57.207Z,56.65
2016-09-21T01:56:57.181Z,56.46
2016-09-21T01:57:57.156Z,56.56
2016-09-21T01:58:57.134Z,56.75
2016-09-21T01:59:57.110Z,56.56
2016-09-21T02:00:57.384Z,56.84
2016-09-21T02:01:57.065Z,56.56
2016-09-21T02:02:57.042Z,56.94
2016-09-21T02:03:57.020Z,56.65
2016-09-21T02:04:56.992Z,57.23
2016-09-21T02:05:56.971Z,56.65
2016-09-21T02:06:56.946Z,57.48
2016-09-21T02:07:56.926Z,57.2
2016-09-21T02:08:56.901Z,57.29
2016-09-21T02:09:56.877Z,57.29
2016-09-21T02:10:56.857Z,57.48
2016-09-21T02:11:56.831Z,57.48
2016-09-21T02:12:56.807Z,57.2
2016-09-21T02:13:56.782Z,57.48
2016-09-21T02:14:56.761Z,57.2
2016-09-21T02:15:56.737Z,57.29
2016-09-21T02:16:56.743Z,57.87
2016-09-21T02:17:56.691Z,57.68
2016-09-21T02:18:56.666Z,57.68
2016-09-21T02:19:56.642Z,57.77
2016-09-21T02:20:56.620Z,57.68
2016-09-21T02:21:56.596Z,57.87
2016-09-21T02:22:56.573Z,57.77
2016-09-21T02:23:56.549Z,57.77
2016-09-21T02:24:56.527Z,57.58
2016-09-21T02:25:56.507Z,57.77
2016-09-21T02:26:56.478Z,57.87
2016-09-21T02:27:56.458Z,58.54
2016-09-21T02:28:56.434Z,58.54
2016-09-21T02:29:56.407Z,58.06
2016-09-21T02:30:56.681Z,58.15
2016-09-21T02:31:56.364Z,58.25
2016-09-21T02:32:56.336Z,57.97
2016-09-21T02:33:56.316Z,57.97
2016-09-21T02:34:56.292Z,58.15
2016-09-21T02:35:56.267Z,58.34
2016-09-21T02:36:56.244Z,58.25
2016-09-21T02:37:56.218Z,58.34
2016-09-21T02:38:56.206Z,58.25
2016-09-21T02:39:56.173Z,58.15
2016-09-21T02:40:56.150Z,58.15
2016-09-21T02:41:56.128Z,58.06
2016-09-21T02:42:56.102Z,58.15
2016-09-21T02:43:56.081Z,58.34
2016-09-21T02:44:56.058Z,58.15
2016-09-21T02:45:56.032Z,58.34
2016-09-21T02:46:56.010Z,58.34
2016-09-21T02:47:55.985Z,57.97
2016-09-21T02:48:55.960Z,58.06
2016-09-21T02:49:55.936Z,58.25
2016-09-21T02:50:55.912Z,57.97
2016-09-21T02:51:55.891Z,58.44
2016-09-21T02:52:55.867Z,58.83
2016-09-21T02:53:55.842Z,58.73
2016-09-21T02:54:55.821Z,58.83
2016-09-21T02:55:55.796Z,58.73
2016-09-21T02:56:55.773Z,58.73
2016-09-21T02:57:55.751Z,58.54
2016-09-21T02:58:55.727Z,58.34
2016-09-21T02:59:55.702Z,58.54
2016-09-21T03:00:55.676Z,58.83
2016-09-21T03:01:55.656Z,59.11
2016-09-21T03:02:55.629Z,59.11
2016-09-21T03:03:55.607Z,59.01
2016-09-21T03:04:55.586Z,59.69
2016-09-21T03:05:55.558Z,59.27
2016-09-21T03:06:55.536Z,59.27
2016-09-21T03:07:55.510Z,59.56
2016-09-21T03:08:55.490Z,59.66
2016-09-21T03:09:55.466Z,59.2
2016-09-21T03:10:55.438Z,59.56
2016-09-21T03:11:55.417Z,60.33
2016-09-21T03:12:55.395Z,59.94
2016-09-21T03:13:55.371Z,60.23
2016-09-21T03:14:55.345Z,60.13
2016-09-21T03:15:55.319Z,60.52
2016-09-21T03:16:55.299Z,60.42
2016-09-21T03:17:55.275Z,60.42
2016-09-21T03:18:55.251Z,60.42
2016-09-21T03:19:55.227Z,60.9
2016-09-21T03:20:55.201Z,60.99
2016-09-21T03:21:55.179Z,60.9
2016-09-21T03:22:55.161Z,60.71
2016-09-21T03:23:55.132Z,60.99
2016-09-21T03:24:55.113Z,61.47
2016-09-21T03:25:55.080Z,61.76
2016-09-21T03:26:55.057Z,61.85
2016-09-21T03:27:55.041Z,61.44
2016-09-21T03:28:55.012Z,61.82
2016-09-21T03:29:54.986Z,62.21
2016-09-21T03:30:54.959Z,62.11
2016-09-21T03:31:54.939Z,62.49
2016-09-21T03:32:54.914Z,62.3
2016-09-21T03:33:54.889Z,62.68
2016-09-21T03:34:54.863Z,63.07
2016-09-21T03:35:54.840Z,62.97
2016-09-21T03:36:54.818Z,63.45
2016-09-21T03:37:54.791Z,63.07
2016-09-21T03:38:54.767Z,63.54
2016-09-21T03:39:54.741Z,63.83
2016-09-21T03:40:54.718Z,63.93
2016-09-21T03:41:54.699Z,64.18
2016-09-21T03:42:54.668Z,63.6
2016-09-21T03:43:54.642Z,63.8
2016-09-21T03:44:54.618Z,63.89
2016-09-21T03:45:54.594Z,64.09
2016-09-21T03:46:54.569Z,64.65
2016-09-21T03:47:54.543Z,64.56
2016-09-21T03:48:54.522Z,64.75
2016-09-21T03:49:54.492Z,65.23
2016-09-21T03:50:54.473Z,65.23
2016-09-21T03:51:54.447Z,65.61
2016-09-21T03:52:54.419Z,65.67
2016-09-21T03:53:54.397Z,65.52
2016-09-21T03:54:54.370Z,65.58
2016-09-21T03:55:54.345Z,65.87
2016-09-21T03:56:54.326Z,65.77
2016-09-21T03:57:54.298Z,66.15
2016-09-21T03:58:54.271Z,66.15
2016-09-21T03:59:54.245Z,66.53
2016-09-21T04:00:54.222Z,66.63
2016-09-21T04:01:54.196Z,66.72
2016-09-21T04:02:54.170Z,66.92
2016-09-21T04:03:54.145Z,66.72
2016-09-21T04:04:54.118Z,66.82
2016-09-21T04:05:54.096Z,66.82
2016-09-21T04:06:54.069Z,67.21
2016-09-21T04:07:54.044Z,67.49
2016-09-21T04:08:54.518Z,67.46
2016-09-21T04:09:53.993Z,67.11
2016-09-21T04:10:53.969Z,67.93
2016-09-21T04:11:53.944Z,67.93
2016-09-21T04:12:53.918Z,67.74
2016-09-21T04:13:53.892Z,67.93
2016-09-21T04:14:53.867Z,68.12
2016-09-21T04:15:53.841Z,68.12
2016-09-21T04:16:53.813Z,68.41
2016-09-21T04:17:53.792Z,68.7
2016-09-21T04:18:53.765Z,68.51
2016-09-21T04:19:53.741Z,68.79
2016-09-21T04:20:53.722Z,68.88
2016-09-21T04:21:53.689Z,68.88
2016-09-21T04:22:53.663Z,69.27
2016-09-21T04:23:53.637Z,69.46
2016-09-21T04:24:53.612Z,69.46
2016-09-21T04:25:53.589Z,69.56
2016-09-21T04:26:53.561Z,69.56
2016-09-21T04:27:53.536Z,69.46
2016-09-21T04:28:53.510Z,70.03
2016-09-21T04:29:53.483Z,69.93
2016-09-21T04:30:53.464Z,70.13
2016-09-21T04:31:53.432Z,70.32
2016-09-21T04:32:53.415Z,70.51
2016-09-21T04:33:53.380Z,70.51
2016-09-21T04:34:53.356Z,70.42
2016-09-21T04:35:53.327Z,70.51
2016-09-21T04:36:53.308Z,70.61
2016-09-21T04:37:53.277Z,70.79
2016-09-21T04:38:53.263Z,70.51
2016-09-21T04:39:53.227Z,70.7
2016-09-21T04:40:53.201Z,70.32
2016-09-21T04:41:53.181Z,70.89
2016-09-21T04:42:53.147Z,70.98
2016-09-21T04:43:53.124Z,71.14
2016-09-21T04:44:53.097Z,70.61
2016-09-21T04:45:53.071Z,70.86
2016-09-21T04:46:53.044Z,71.04
2016-09-21T04:47:53.020Z,71.04
2016-09-21T04:48:53.008Z,70.76
2016-09-21T04:49:52.966Z,70.95
2016-09-21T04:50:52.941Z,71.04
2016-09-21T04:51:52.917Z,71.14
2016-09-21T04:52:52.890Z,71.14
2016-09-21T04:53:52.865Z,71.52
2016-09-21T04:54:52.838Z,71.52
2016-09-21T04:55:52.813Z,71.43
2016-09-21T04:56:52.787Z,71.52
2016-09-21T04:57:52.759Z,71.33
2016-09-21T04:58:52.739Z,71.33
2016-09-21T04:59:52.709Z,71.43
2016-09-21T05:00:52.699Z,71.72
2016-09-21T05:01:52.655Z,71.72
2016-09-21T05:02:52.630Z,71.81
2016-09-21T05:03:52.611Z,71.43
2016-09-21T05:04:52.579Z,71.91
2016-09-21T05:05:52.552Z,72.09
2016-09-21T05:06:52.524Z,72
2016-09-21T05:07:52.499Z,72.09
2016-09-21T05:08:52.476Z,72.28
2016-09-21T05:09:52.451Z,72
2016-09-21T05:10:52.423Z,72.28
2016-09-21T05:11:52.400Z,72.96
2016-09-21T05:12:52.370Z,72.86
2016-09-21T05:13:52.345Z,72.19
2016-09-21T05:14:52.319Z,72.57
2016-09-21T05:15:52.292Z,72.48
2016-09-21T05:16:52.266Z,72.57
2016-09-21T05:17:52.241Z,72.67
2016-09-21T05:18:52.212Z,73.24
2016-09-21T05:19:52.490Z,73.05
2016-09-21T05:20:52.161Z,72.96
2016-09-21T05:21:52.142Z,73.24
2016-09-21T05:22:52.108Z,72.76
2016-09-21T05:23:52.089Z,72.67
2016-09-21T05:24:52.059Z,72.76
2016-09-21T05:25:52.032Z,72.76
2016-09-21T05:26:52.008Z,73.24
2016-09-21T05:27:51.992Z,73.05
2016-09-21T05:28:51.956Z,72.86
2016-09-21T05:29:51.926Z,73.43
2016-09-21T05:30:51.900Z,73.33
2016-09-21T05:31:51.877Z,73.33
2016-09-21T05:32:51.865Z,73.14
2016-09-21T05:33:51.825Z,73.43
2016-09-21T05:34:51.797Z,73.05
2016-09-21T05:35:51.771Z,73.24
2016-09-21T05:36:51.746Z,73.24
2016-09-21T05:37:51.721Z,73.24
2016-09-21T05:38:51.699Z,72.86
2016-09-21T05:39:51.670Z,73.24
2016-09-21T05:40:51.639Z,73.05
2016-09-21T05:41:51.617Z,72.86
2016-09-21T05:42:51.588Z,73.24
2016-09-21T05:43:51.563Z,73.43
2016-09-21T05:44:51.549Z,73.14
2016-09-21T05:45:51.511Z,73.24
2016-09-21T05:46:51.483Z,73.24
2016-09-21T05:47:51.460Z,73.33
2016-09-21T05:48:51.432Z,72.76
2016-09-21T05:49:51.407Z,73.24
2016-09-21T05:50:51.390Z,73.24
2016-09-21T05:51:51.354Z,73.14
2016-09-21T05:52:51.329Z,73.14
2016-09-21T05:53:51.302Z,73.43
2016-09-21T05:54:51.276Z,73.62
2016-09-21T05:55:51.250Z,73.43
2016-09-21T05:56:51.228Z,73.72
2016-09-21T05:57:51.197Z,73.52
2016-09-21T05:58:51.172Z,73.43
2016-09-21T05:59:51.242Z,73.43
2016-09-21T06:00:51.121Z,73.52
2016-09-21T06:01:51.094Z,73.72
2016-09-21T06:02:51.068Z,73.62
2016-09-21T06:03:51.043Z,73.52
2016-09-21T06:04:51.124Z,73.62
2016-09-21T06:05:50.990Z,73.72
2016-09-21T06:06:50.963Z,73.52
2016-09-21T06:07:50.954Z,73.52
2016-09-21T06:08:50.911Z,73.52
2016-09-21T06:09:50.884Z,73.52
2016-09-21T06:10:50.858Z,73.72
2016-09-21T06:11:50.834Z,73.52
2016-09-21T06:12:50.808Z,73.43
2016-09-21T06:13:50.785Z,73.43
2016-09-21T06:14:50.756Z,73.24
2016-09-21T06:15:50.738Z,73.33
2016-09-21T06:16:50.705Z,73.14
2016-09-21T06:17:50.677Z,72.86
2016-09-21T06:18:50.651Z,73.05
2016-09-21T06:19:50.629Z,73.05
2016-09-21T06:20:50.603Z,72.96
2016-09-21T06:21:50.576Z,73.05
2016-09-21T06:22:50.550Z,73.33
2016-09-21T06:23:50.526Z,73.24
2016-09-21T06:24:50.498Z,72.96
2016-09-21T06:25:50.475Z,72.86
2016-09-21T06:26:50.448Z,72.57
2016-09-21T06:27:50.424Z,72.76
2016-09-21T06:28:50.397Z,73.24
2016-09-21T06:29:50.371Z,72.57
2016-09-21T06:30:50.345Z,72.71
2016-09-21T06:31:50.324Z,72.99
2016-09-21T06:32:50.293Z,72.71
2016-09-21T06:33:50.267Z,72.8
2016-09-21T06:34:50.247Z,73.08
2016-09-21T06:35:50.218Z,73.28
2016-09-21T06:36:50.191Z,73.08
2016-09-21T06:37:50.165Z,73.18
2016-09-21T06:38:50.144Z,72.71
2016-09-21T06:39:50.115Z,72.71
2016-09-21T06:40:50.091Z,72.61
2016-09-21T06:41:50.064Z,72.8
2016-09-21T06:42:50.038Z,72.23
2016-09-21T06:43:50.012Z,72.99
2016-09-21T06:44:49.988Z,72.03
2016-09-21T06:45:49.963Z,72.23
2016-09-21T06:46:49.938Z,72.13
2016-09-21T06:47:49.917Z,72.13
2016-09-21T06:48:49.888Z,72.03
2016-09-21T06:49:49.861Z,72.13
2016-09-21T06:50:49.837Z,72.32
2016-09-21T06:51:49.809Z,72.23
2016-09-21T06:52:49.787Z,72.23
2016-09-21T06:53:49.760Z,72.42
2016-09-21T06:54:49.731Z,72.03
2016-09-21T06:55:49.710Z,71.94
2016-09-21T06:56:49.685Z,72.03
2016-09-21T06:57:49.659Z,71.66
2016-09-21T06:58:49.632Z,71.56
2016-09-21T06:59:49.736Z,71.66
2016-09-21T07:00:49.585Z,71.78
2016-09-21T07:01:49.558Z,71.66
2016-09-21T07:02:49.532Z,71.27
2016-09-21T07:03:49.514Z,71.31
2016-09-21T07:04:49.484Z,71.5
2016-09-21T07:05:49.513Z,71.59
2016-09-21T07:06:49.431Z,71.69
2016-09-21T07:07:49.408Z,71.31
2016-09-21T07:08:49.382Z,70.73
2016-09-21T07:09:49.359Z,70.92
2016-09-21T07:10:49.333Z,71.02
2016-09-21T07:11:49.304Z,70.73
2016-09-21T07:12:49.281Z,70.92
2016-09-21T07:13:49.259Z,71.31
2016-09-21T07:14:49.240Z,71.02
2016-09-21T07:15:49.206Z,70.92
2016-09-21T07:16:49.187Z,70.64
2016-09-21T07:17:49.177Z,70.83
2016-09-21T07:18:49.133Z,71.02
2016-09-21T07:19:49.107Z,70.64
2016-09-21T07:20:49.084Z,70.73
2016-09-21T07:21:49.061Z,70.87
2016-09-21T07:22:49.059Z,70.39
2016-09-21T07:23:49.328Z,70.67
2016-09-21T07:24:48.985Z,70.67
2016-09-21T07:25:49.283Z,70.67
2016-09-21T07:26:48.945Z,70.1
2016-09-21T07:27:48.913Z,70.39
2016-09-21T07:28:49.237Z,70.1
2016-09-21T07:29:49.251Z,70.1
2016-09-21T07:30:48.837Z,70.01
2016-09-21T07:31:48.818Z,69.82
2016-09-21T07:32:48.860Z,69.72
2016-09-21T07:33:48.763Z,69.82
2016-09-21T07:34:48.924Z,69.91
2016-09-21T07:35:48.752Z,70.01
2016-09-21T07:36:48.697Z,69.34
2016-09-21T07:37:48.666Z,69.47
2016-09-21T07:38:48.648Z,69.66
2016-09-21T07:39:48.907Z,69.37
2016-09-21T07:40:48.594Z,69.09
2016-09-21T07:41:48.571Z,69.27
2016-09-21T07:42:48.545Z,68.61
2016-09-21T07:43:48.520Z,68.8
2016-09-21T07:44:48.494Z,68.51
2016-09-21T07:45:48.470Z,68.41
2016-09-21T07:46:48.444Z,68.04
2016-09-21T07:47:48.424Z,67.97
2016-09-21T07:48:48.400Z,68.26
2016-09-21T07:49:48.376Z,67.59
2016-09-21T07:50:48.649Z,67.3
2016-09-21T07:51:48.377Z,67.4
2016-09-21T07:52:48.347Z,67.4
2016-09-21T07:53:48.362Z,67.21
2016-09-21T07:54:48.556Z,67.02
2016-09-21T07:55:48.229Z,67.02
2016-09-21T07:56:48.211Z,66.83
2016-09-21T07:57:48.269Z,67.11
2016-09-21T07:58:48.160Z,66.57
2016-09-21T07:59:48.138Z,66.67
2016-09-21T08:00:48.119Z,65.9
2016-09-21T08:01:48.090Z,65.81
2016-09-21T08:02:48.069Z,65.81
2016-09-21T08:03:48.044Z,65.42
2016-09-21T08:04:48.087Z,64.85
2016-09-21T08:05:47.996Z,64.75
2016-09-21T08:06:47.975Z,64.47
2016-09-21T08:07:47.950Z,64.18
2016-09-21T08:08:47.928Z,63.83
2016-09-21T08:09:47.907Z,63.73
2016-09-21T08:10:47.923Z,63.16
2016-09-21T08:11:47.859Z,62.97
2016-09-21T08:12:47.870Z,62.87
2016-09-21T08:13:47.861Z,62.49
2016-09-21T08:14:47.790Z,62.11
2016-09-21T08:15:47.763Z,61.57
2016-09-21T08:16:47.779Z,61.57
2016-09-21T08:17:47.721Z,61.18
2016-09-21T08:18:47.697Z,60.89
2016-09-21T08:19:47.679Z,60.41
2016-09-21T08:20:47.679Z,60.03
2016-09-21T08:21:47.655Z,59.55
2016-09-21T08:22:47.634Z,59.48
2016-09-21T08:23:47.590Z,58.72
2016-09-21T08:24:47.566Z,58.44
2016-09-21T08:25:47.543Z,57.76
2016-09-21T08:26:47.522Z,57.38
2016-09-21T08:27:47.589Z,57.38
2016-09-21T08:28:47.529Z,56.71
2016-09-21T08:29:47.453Z,56.42
2016-09-21T08:30:47.482Z,56.13
2016-09-21T08:31:47.453Z,55.58
2016-09-21T08:32:47.387Z,55.4
2016-09-21T08:33:47.366Z,54.91
2016-09-21T08:34:47.399Z,54.91
2016-09-21T08:35:47.321Z,54.15
2016-09-21T08:36:47.302Z,54.44
2016-09-21T08:37:47.298Z,53.86
2016-09-21T08:38:47.262Z,53.58
2016-09-21T08:39:47.238Z,52.91
2016-09-21T08:40:47.224Z,53.31
2016-09-21T08:41:47.269Z,52.26
2016-09-21T08:42:47.176Z,52.36
2016-09-21T08:43:47.216Z,51.87
2016-09-21T08:44:47.137Z,51.78
2016-09-21T08:45:47.455Z,50.82
2016-09-21T08:46:47.149Z,50.92
2016-09-21T08:47:47.070Z,51.01
2016-09-21T08:48:47.077Z,50.24
2016-09-21T08:49:47.089Z,49.96
2016-09-21T08:50:47.005Z,50.15
2016-09-21T08:51:46.983Z,49.86
2016-09-21T08:52:46.965Z,49.79
2016-09-21T08:53:46.943Z,49.02
2016-09-21T08:54:46.949Z,49.02
2016-09-21T08:55:46.899Z,48.93
2016-09-21T08:56:46.930Z,48.74
2016-09-21T08:57:46.893Z,49.12
2016-09-21T08:58:46.855Z,48.93
2016-09-21T08:59:46.849Z,48.64
2016-09-21T09:00:46.842Z,47.97
2016-09-21T09:01:46.800Z,47.87
2016-09-21T09:02:46.754Z,47.58
2016-09-21T09:03:46.754Z,47.39
2016-09-21T09:04:46.714Z,47.22
2016-09-21T09:05:46.694Z,46.17
2016-09-21T09:06:46.672Z,46.17
2016-09-21T09:07:46.652Z,46.26
2016-09-21T09:08:46.635Z,45.3
2016-09-21T09:09:46.612Z,45.01
2016-09-21T09:10:46.593Z,45.21
2016-09-21T09:11:46.570Z,45.04
2016-09-21T09:12:46.553Z,44.34
2016-09-21T09:13:46.529Z,43.88
2016-09-21T09:14:46.512Z,43.6
2016-09-21T09:15:46.493Z,43.4
2016-09-21T09:16:46.476Z,43.02
2016-09-21T09:17:46.454Z,43.02
2016-09-21T09:18:46.433Z,42.64
2016-09-21T09:19:46.411Z,42.16
2016-09-21T09:20:46.391Z,42.06
2016-09-21T09:21:46.373Z,41.77
2016-09-21T09:22:46.354Z,41.87
2016-09-21T09:23:46.333Z,41.5
2016-09-21T09:24:46.309Z,40.93
2016-09-21T09:25:46.294Z,40.83
2016-09-21T09:26:46.273Z,40.73
2016-09-21T09:27:46.252Z,40.45
2016-09-21T09:28:46.234Z,40.64
2016-09-21T09:29:46.217Z,40.73
2016-09-21T09:30:46.194Z,40.06
2016-09-21T09:31:46.176Z,40.55
2016-09-21T09:32:46.152Z,40.35
2016-09-21T09:33:46.138Z,39.97
2016-09-21T09:34:46.121Z,39.68
2016-09-21T09:35:46.097Z,39.39
2016-09-21T09:36:46.080Z,39.01
2016-09-21T09:37:46.090Z,38.72
2016-09-21T09:38:46.053Z,38.72
2016-09-21T09:39:46.032Z,38.34
2016-09-21T09:40:45.999Z,38.16
2016-09-21T09:41:46.036Z,38.14
2016-09-21T09:42:46.302Z,37.87
2016-09-21T09:43:45.939Z,37.59
2016-09-21T09:44:45.922Z,37.77
2016-09-21T09:45:45.903Z,37.59
2016-09-21T09:46:45.884Z,37.39
2016-09-21T09:47:46.206Z,37.97
2016-09-21T09:48:46.073Z,38.16
2016-09-21T09:49:46.037Z,37.97
2016-09-21T09:50:45.824Z,38.45
2016-09-21T09:51:45.785Z,38.54
2016-09-21T09:52:45.801Z,38.35
2016-09-21T09:53:45.769Z,38.35
2016-09-21T09:54:45.736Z,38.45
2016-09-21T09:55:45.708Z,38.26
2016-09-21T09:56:45.703Z,38.26
2016-09-21T09:57:45.669Z,38.16
2016-09-21T09:58:45.689Z,37.97
2016-09-21T09:59:45.630Z,37.97
2016-09-21T10:00:45.612Z,37.59
2016-09-21T10:01:45.593Z,37.39
2016-09-21T10:02:45.573Z,37.32
2016-09-21T10:03:45.553Z,36.91
2016-09-21T10:04:45.533Z,37.01
2016-09-21T10:05:45.815Z,37.01
2016-09-21T10:06:45.551Z,36.45
2016-09-21T10:07:45.474Z,36.54
2016-09-21T10:08:45.455Z,36.54
2016-09-21T10:09:45.434Z,36.07
2016-09-21T10:10:45.418Z,36.07
2016-09-21T10:11:45.397Z,36.07
2016-09-21T10:12:45.379Z,36.16
2016-09-21T10:13:45.380Z,36.16
2016-09-21T10:14:45.341Z,36.25
2016-09-21T10:15:45.321Z,35.58
2016-09-21T10:16:45.304Z,35.49
2016-09-21T10:17:45.284Z,35.2
2016-09-21T10:18:45.266Z,35.2
2016-09-21T10:19:45.244Z,35.3
2016-09-21T10:20:45.234Z,35.2
2016-09-21T10:21:45.205Z,34.91
2016-09-21T10:22:45.192Z,35.2
2016-09-21T10:23:45.169Z,34.81
2016-09-21T10:24:45.152Z,34.72
2016-09-21T10:25:45.130Z,34.72
2016-09-21T10:26:45.113Z,34.53
2016-09-21T10:27:45.091Z,35
2016-09-21T10:28:45.080Z,34.53
2016-09-21T10:29:45.054Z,34.53
2016-09-21T10:30:45.036Z,34.43
2016-09-21T10:31:45.015Z,34.62
2016-09-21T10:32:44.998Z,34.74
2016-09-21T10:33:44.983Z,34.45
2016-09-21T10:34:44.962Z,34.45
2016-09-21T10:35:44.940Z,34.25
2016-09-21T10:36:44.921Z,34.06
2016-09-21T10:37:44.906Z,33.87
2016-09-21T10:38:44.888Z,34.16
2016-09-21T10:39:44.866Z,33.58
2016-09-21T10:40:44.843Z,34.25
2016-09-21T10:41:44.825Z,33.77
2016-09-21T10:42:44.810Z,33.97
2016-09-21T10:43:44.789Z,34.16
2016-09-21T10:44:44.770Z,33.97
2016-09-21T10:45:44.753Z,34.06
2016-09-21T10:46:44.734Z,34.06
2016-09-21T10:47:44.712Z,33.77
2016-09-21T10:48:44.700Z,33.97
2016-09-21T10:49:44.677Z,33.67
2016-09-21T10:50:44.656Z,33.67
2016-09-21T10:51:44.645Z,33.67
2016-09-21T10:52:44.625Z,33.77
2016-09-21T10:53:44.600Z,33.67
2016-09-21T10:54:44.579Z,33.77
2016-09-21T10:55:44.562Z,33.67
2016-09-21T10:56:44.546Z,33.77
2016-09-21T10:57:44.524Z,33.97
2016-09-21T10:58:44.504Z,33.67
2016-09-21T10:59:44.486Z,33.87
2016-09-21T11:00:44.469Z,33.77
2016-09-21T11:01:44.451Z,33.48
2016-09-21T11:02:44.438Z,33.48
2016-09-21T11:03:44.414Z,33.87
2016-09-21T11:04:44.394Z,33.67
2016-09-21T11:05:44.682Z,33.39
2016-09-21T11:06:44.389Z,33.5
2016-09-21T11:07:44.337Z,33.48
2016-09-21T11:08:44.321Z,33.39
2016-09-21T11:09:44.400Z,33.48
2016-09-21T11:10:44.279Z,33.48
2016-09-21T11:11:44.263Z,33.39
2016-09-21T11:12:44.250Z,33.48
2016-09-21T11:13:44.226Z,33.39
2016-09-21T11:14:44.208Z,33.2
2016-09-21T11:15:44.188Z,33.29
2016-09-21T11:16:44.173Z,33.58
2016-09-21T11:17:44.158Z,33.39
2016-09-21T11:18:44.131Z,33.58
2016-09-21T11:19:44.116Z,33.67
2016-09-21T11:20:44.095Z,33.2
2016-09-21T11:21:44.075Z,33.48
2016-09-21T11:22:44.056Z,33.39
2016-09-21T11:23:44.039Z,33.1
2016-09-21T11:24:44.024Z,33.2
2016-09-21T11:25:44.002Z,33.1
2016-09-21T11:26:43.983Z,33.1
2016-09-21T11:27:43.962Z,33.2
2016-09-21T11:28:43.949Z,33
2016-09-21T11:29:43.924Z,33
2016-09-21T11:30:43.911Z,33
2016-09-21T11:31:43.889Z,32.81
2016-09-21T11:32:43.869Z,32.81
2016-09-21T11:33:44.193Z,32.73
2016-09-21T11:34:43.833Z,32.73
2016-09-21T11:35:43.815Z,32.64
2016-09-21T11:36:43.796Z,32.62
2016-09-21T11:37:43.779Z,32.54
2016-09-21T11:38:43.757Z,32.54
2016-09-21T11:39:43.739Z,32.44
2016-09-21T11:40:43.722Z,32.44
2016-09-21T11:41:43.704Z,32.44
2016-09-21T11:42:43.705Z,32.54
2016-09-21T11:43:43.951Z,32.44
2016-09-21T11:44:43.649Z,32.44
2016-09-21T11:45:43.632Z,32.34
2016-09-21T11:46:43.623Z,32.15
2016-09-21T11:47:43.595Z,32.25
2016-09-21T11:48:43.585Z,32.15
2016-09-21T11:49:43.561Z,32.06
2016-09-21T11:50:43.538Z,32.07
2016-09-21T11:51:43.522Z,31.98
2016-09-21T11:52:43.500Z,31.88
2016-09-21T11:53:43.487Z,31.78
2016-09-21T11:54:43.465Z,31.78
2016-09-21T11:55:43.457Z,31.88
2016-09-21T11:56:43.429Z,31.69
2016-09-21T11:57:43.412Z,31.9
2016-09-21T11:58:43.392Z,31.7
2016-09-21T11:59:43.374Z,31.6
2016-09-21T12:00:43.357Z,31.69
2016-09-21T12:01:43.344Z,31.98
2016-09-21T12:02:43.617Z,32.09
2016-09-21T12:03:43.600Z,31.98
2016-09-21T12:04:43.285Z,32.07
2016-09-21T12:05:43.269Z,32.17
2016-09-21T12:06:43.249Z,31.98
2016-09-21T12:07:43.230Z,32.07
2016-09-21T12:08:43.213Z,32.07
2016-09-21T12:09:43.197Z,32.07
2016-09-21T12:10:43.176Z,31.98
2016-09-21T12:11:43.160Z,31.98
2016-09-21T12:12:43.141Z,31.9
2016-09-21T12:13:43.123Z,31.98
2016-09-21T12:14:43.104Z,31.8
2016-09-21T12:15:43.086Z,31.6
2016-09-21T12:16:43.068Z,31.7
2016-09-21T12:17:43.053Z,31.51
2016-09-21T12:18:43.030Z,31.51
2016-09-21T12:19:43.015Z,31.41
2016-09-21T12:20:42.998Z,31.41
2016-09-21T12:21:42.979Z,31.24
2016-09-21T12:22:42.960Z,31.33
2016-09-21T12:23:42.945Z,30.85
2016-09-21T12:24:42.926Z,31.14
2016-09-21T12:25:42.909Z,31.24
2016-09-21T12:26:42.890Z,31.33
2016-09-21T12:27:42.873Z,31.24
2016-09-21T12:28:42.855Z,31.33
2016-09-21T12:29:42.838Z,31.24
2016-09-21T12:30:42.823Z,31.33
2016-09-21T12:31:42.801Z,31.43
2016-09-21T12:32:42.785Z,31.33
2016-09-21T12:33:42.768Z,31.43
2016-09-21T12:34:42.750Z,31.14
2016-09-21T12:35:42.737Z,31.33
2016-09-21T12:36:42.715Z,31.43
2016-09-21T12:37:42.698Z,31.43
2016-09-21T12:38:42.682Z,31.24
2016-09-21T12:39:42.661Z,31.24
2016-09-21T12:40:42.644Z,31.24
2016-09-21T12:41:42.925Z,31.22
2016-09-21T12:42:42.610Z,31.43
2016-09-21T12:43:42.626Z,31.43
2016-09-21T12:44:42.576Z,31.24
2016-09-21T12:45:42.878Z,31.14
2016-09-21T12:46:42.540Z,31.33
2016-09-21T12:47:42.523Z,31.33
2016-09-21T12:48:42.505Z,31.33
2016-09-21T12:49:42.488Z,31.33
2016-09-21T12:50:42.470Z,31.24
2016-09-21T12:51:42.556Z,31.24
2016-09-21T12:52:42.437Z,31.04
2016-09-21T12:53:42.425Z,31.06
2016-09-21T12:54:42.411Z,30.77
2016-09-21T12:55:42.383Z,30.58